Time;durP1;ratioP1;P1;durP2;ratioP2;P2;SDS_P1;SDS_P2;PMS_P1;PMS_P2;Temp;Humidity;BMP_temperature;BMP_pressure;BME280_temperature;BME280_humidity;BME280_pressure;Samples;Min_cycle;Max_cycle;Signal;HPM_P1;HPM_P2
2022/09/02 00:01:03;;;;;;;;;;;;;;;5.23;89.13;98744.44;4936694;29;19978;-84
2022/09/02 00:03:32;;;;;;;;;;;;;;;5.24;89.06;98738.09;4936323;29;19930;-83
2022/09/02 00:06:00;;;;;;;;;;;;;;;5.27;88.92;98726.94;4936054;29;20325;-84
2022/09/02 00:08:27;;;;;;;;;;;;;;;5.27;89.13;98734.16;4936802;29;20030;-84
2022/09/02 00:10:54;;;;;;;;;;;;;;;5.27;89.23;98734.97;4936607;29;19934;-84
2022/09/02 00:13:21;;;;;;;;;;;;;;;5.31;88.83;98740.69;4936100;29;20008;-84
2022/09/02 00:15:48;;;;;;;;;;;;;;;5.37;88.81;98737.16;4935860;29;19998;-83
2022/09/02 00:18:16;;;;;;;;;;;;;;;5.42;88.30;98740.00;4936113;29;20058;-83
2022/09/02 00:20:45;;;;;;;;;;;;;;;5.43;88.12;98742.44;4918934;29;19937;-84
2022/09/02 00:23:14;;;;;;;;;;;;;;;5.47;88.15;98745.53;4936046;29;19961;-84
2022/09/02 00:25:41;;;;;;;;;;;;;;;5.49;87.97;98750.66;4919191;29;19938;-83
2022/09/02 00:28:08;;;;;;;;;;;;;;;5.45;88.03;98746.78;4935765;29;19962;-83
2022/09/02 00:30:36;;;;;;;;;;;;;;;5.45;88.07;98746.78;4935688;29;20021;-85
2022/09/02 00:33:04;;;;;;;;;;;;;;;5.45;88.34;98749.47;4935924;29;19937;-85
2022/09/02 00:35:31;;;;;;;;;;;;;;;5.43;88.15;98738.97;4935363;29;19969;-84
2022/09/02 00:38:00;;;;;;;;;;;;;;;5.42;88.27;98740.00;4919004;29;19930;-85
2022/09/02 00:40:27;;;;;;;;;;;;;;;5.39;88.47;98733.25;4935278;29;19953;-83
2022/09/02 00:42:55;;;;;;;;;;;;;;;5.37;88.55;98740.66;4919374;29;20386;-84
2022/09/02 00:45:21;;;;;;;;;;;;;;;5.39;88.60;98737.75;4919697;29;19978;-83
2022/09/02 00:47:52;;;;;;;;;;;;;;;5.39;88.75;98745.78;4918469;29;19935;-84
2022/09/02 00:50:23;;;;;;;;;;;;;;;5.39;88.83;98749.28;4935750;29;20335;-84
2022/09/02 00:52:53;;;;;;;;;;;;;;;5.38;88.72;98755.66;4919128;29;20017;-84
2022/09/02 00:55:25;;;;;;;;;;;;;;;5.39;89.04;98754.66;4919203;29;19986;-84
2022/09/02 00:57:59;;;;;;;;;;;;;;;5.40;89.08;98744.75;4902851;29;20313;-83
2022/09/02 01:00:28;;;;;;;;;;;;;;;5.44;88.92;98745.94;4918916;29;19947;-82
2022/09/02 01:03:01;;;;;;;;;;;;;;;5.45;88.59;98750.28;4918308;29;20350;-84
2022/09/02 01:05:29;;;;;;;;;;;;;;;5.42;88.66;98753.41;4934908;29;20354;-83
2022/09/02 01:07:56;;;;;;;;;;;;;;;5.38;88.75;98744.16;4918419;29;19931;-85
2022/09/02 01:10:28;;;;;;;;;;;;;;;5.37;89.17;98739.84;4935061;29;19934;-84
2022/09/02 01:12:59;;;;;;;;;;;;;;;5.38;89.16;98752.19;4918264;29;19930;-84
2022/09/02 01:15:26;;;;;;;;;;;;;;;5.41;89.05;98736.50;4934744;29;20025;-84
2022/09/02 01:17:53;;;;;;;;;;;;;;;5.43;89.28;98733.59;4934413;29;19931;-84
2022/09/02 01:20:21;;;;;;;;;;;;;;;5.46;89.07;98740.38;4918627;29;19953;-83
2022/09/02 01:22:51;;;;;;;;;;;;;;;5.43;88.95;98734.44;4935325;29;19981;-84
2022/09/02 01:25:21;;;;;;;;;;;;;;;5.42;89.01;98740.00;4919100;29;19931;-83
2022/09/02 01:27:48;;;;;;;;;;;;;;;5.42;89.05;98737.34;4937098;29;19931;-84
2022/09/02 01:30:16;;;;;;;;;;;;;;;5.45;88.69;98736.91;4919045;29;20461;-85
2022/09/02 01:32:45;;;;;;;;;;;;;;;5.47;88.53;98739.34;4918307;29;19930;-84
2022/09/02 01:35:15;;;;;;;;;;;;;;;5.43;88.50;98739.78;4918445;29;19946;-84
2022/09/02 01:37:44;;;;;;;;;;;;;;;5.46;88.46;98737.72;4917884;29;19930;-84
2022/09/02 01:40:21;;;;;;;;;;;;;;;5.49;88.31;98747.97;4914813;29;19978;-84
2022/09/02 01:42:48;;;;;;;;;;;;;;;5.48;88.33;98747.16;4914771;29;19942;-83
2022/09/02 01:45:15;;;;;;;;;;;;;;;5.48;88.32;98749.84;4915006;29;19994;-84
2022/09/02 01:47:42;;;;;;;;;;;;;;;5.51;88.36;98753.94;4915779;29;20394;-84
2022/09/02 01:50:09;;;;;;;;;;;;;;;5.49;88.17;98751.47;4914678;29;20037;-84
2022/09/02 01:52:36;;;;;;;;;;;;;;;5.49;88.11;98751.47;4914731;29;19939;-85
2022/09/02 01:55:04;;;;;;;;;;;;;;;5.47;88.05;98753.56;4916992;29;19931;-85
2022/09/02 01:57:31;;;;;;;;;;;;;;;5.45;88.12;98747.59;4915117;29;20061;-85
2022/09/02 01:59:58;;;;;;;;;;;;;;;5.45;87.88;98763.66;4915663;29;19931;-83
2022/09/02 02:02:25;;;;;;;;;;;;;;;5.50;87.74;98754.97;4916553;29;20333;-83
2022/09/02 02:04:52;;;;;;;;;;;;;;;5.53;87.69;98751.88;4915146;29;19938;-84
2022/09/02 02:07:21;;;;;;;;;;;;;;;5.56;87.55;98752.22;4914901;29;19931;-82
2022/09/02 02:09:49;;;;;;;;;;;;;;;5.52;87.60;98750.22;4915368;29;19942;-83
2022/09/02 02:12:19;;;;;;;;;;;;;;;5.42;88.31;98764.09;4914446;29;20287;-84
2022/09/02 02:14:46;;;;;;;;;;;;;;;5.32;88.85;98761.91;4898830;29;19931;-83
2022/09/02 02:17:13;;;;;;;;;;;;;;;5.27;89.47;98766.25;4915867;29;19974;-83
2022/09/02 02:19:41;;;;;;;;;;;;;;;5.21;90.05;98771.41;4915536;29;19930;-82
2022/09/02 02:22:08;;;;;;;;;;;;;;;5.20;90.28;98761.75;4883247;29;19943;-84
2022/09/02 02:24:35;;;;;;;;;;;;;;;5.24;90.28;98772.88;4915553;29;19931;-82
2022/09/02 02:27:03;;;;;;;;;;;;;;;5.25;90.32;98776.34;4915526;29;20402;-83
2022/09/02 02:29:30;;;;;;;;;;;;;;;5.21;90.23;98774.09;4915663;29;20034;-84
2022/09/02 02:31:58;;;;;;;;;;;;;;;5.22;90.44;98778.41;4917931;29;19988;-83
2022/09/02 02:34:25;;;;;;;;;;;;;;;5.24;90.63;98778.22;4917899;29;19938;-84
2022/09/02 02:36:52;;;;;;;;;;;;;;;5.27;90.57;98782.31;4918615;29;19931;-83
2022/09/02 02:39:19;;;;;;;;;;;;;;;5.31;90.60;98787.00;4919338;29;20339;-84
2022/09/02 02:41:47;;;;;;;;;;;;;;;5.31;90.61;98786.19;4904727;29;20158;-82
2022/09/02 02:44:16;;;;;;;;;;;;;;;5.31;90.89;98788.88;4919244;29;19931;-84
2022/09/02 02:46:43;;;;;;;;;;;;;;;5.27;90.73;98783.13;4919460;29;19938;-83
2022/09/02 02:49:11;;;;;;;;;;;;;;;5.24;90.77;98788.06;4917533;29;19961;-85
2022/09/02 02:51:38;;;;;;;;;;;;;;;5.23;90.74;98784.59;4918758;29;19998;-86
2022/09/02 02:54:04;;;;;;;;;;;;;;;5.28;90.53;98791.97;4917729;29;20370;-85
2022/09/02 02:56:31;;;;;;;;;;;;;;;5.33;90.19;98806.34;4917295;29;19931;-83
2022/09/02 02:59:02;;;;;;;;;;;;;;;5.33;89.57;98797.50;4902438;29;20523;-83
2022/09/02 03:01:31;;;;;;;;;;;;;;;5.30;89.75;98804.09;4917465;29;20053;-85
2022/09/02 03:03:58;;;;;;;;;;;;;;;5.33;89.49;98802.84;4918866;29;19986;-84
2022/09/02 03:06:26;;;;;;;;;;;;;;;5.34;89.19;98799.97;4917064;29;19931;-84
2022/09/02 03:08:55;;;;;;;;;;;;;;;5.33;89.53;98814.38;4918373;29;19935;-84
2022/09/02 03:11:22;;;;;;;;;;;;;;;5.35;88.92;98809.63;4919027;29;19931;-85
2022/09/02 03:13:50;;;;;;;;;;;;;;;5.39;89.08;98815.34;4918168;29;19935;-83
2022/09/02 03:16:18;;;;;;;;;;;;;;;5.43;88.34;98808.56;4919132;29;20106;-83
2022/09/02 03:18:46;;;;;;;;;;;;;;;5.48;88.11;98808.72;4921523;29;20394;-84
2022/09/02 03:21:14;;;;;;;;;;;;;;;5.51;87.53;98802.94;4921439;29;19935;-84
2022/09/02 03:23:44;;;;;;;;;;;;;;;5.56;86.90;98813.81;4916563;29;20338;-85
2022/09/02 03:26:16;;;;;;;;;;;;;;;5.65;86.19;98811.69;4900347;29;20440;-85
2022/09/02 03:28:46;;;;;;;;;;;;;;;5.74;85.99;98804.22;4912634;29;19962;-85
2022/09/02 03:31:18;;;;;;;;;;;;;;;5.79;85.06;98804.38;4916845;29;19935;-82
2022/09/02 03:33:45;;;;;;;;;;;;;;;5.85;84.16;98803.53;4917821;29;19935;-82
2022/09/02 03:36:20;;;;;;;;;;;;;;;5.90;83.07;98810.88;4917374;29;20346;-83
2022/09/02 03:38:48;;;;;;;;;;;;;;;5.96;81.70;98813.53;4916033;29;19931;-82
2022/09/02 03:41:15;;;;;;;;;;;;;;;6.00;80.64;98808.56;4916075;29;19938;-84
2022/09/02 03:43:42;;;;;;;;;;;;;;;6.03;80.11;98824.22;4916772;29;20131;-84
2022/09/02 03:46:09;;;;;;;;;;;;;;;6.07;79.62;98814.66;4919814;29;19935;-83
2022/09/02 03:48:36;;;;;;;;;;;;;;;6.12;79.09;98816.69;4918525;29;19931;-85
2022/09/02 03:51:04;;;;;;;;;;;;;;;6.13;79.14;98821.84;4886077;29;19931;-84
2022/09/02 03:53:31;;;;;;;;;;;;;;;6.10;79.58;98829.50;4911199;29;19935;-85
2022/09/02 03:56:03;;;;;;;;;;;;;;;6.06;79.95;98832.63;4909574;29;20397;-85
2022/09/02 03:58:32;;;;;;;;;;;;;;;6.06;79.97;98835.28;4913826;29;20428;-87
2022/09/02 04:01:00;;;;;;;;;;;;;;;6.11;79.84;98841.88;4913404;29;19933;-84
2022/09/02 04:03:27;;;;;;;;;;;;;;;6.15;79.87;98845.72;4911585;29;19931;-85
2022/09/02 04:05:54;;;;;;;;;;;;;;;6.14;80.17;98846.78;4917876;29;19938;-84
2022/09/02 04:08:24;;;;;;;;;;;;;;;6.15;80.36;98851.91;4899307;29;19931;-84
2022/09/02 04:10:54;;;;;;;;;;;;;;;6.16;80.85;98856.25;4912570;29;20562;-85
2022/09/02 04:13:21;;;;;;;;;;;;;;;6.19;80.57;98849.63;4903233;29;20050;-86
2022/09/02 04:15:49;;;;;;;;;;;;;;;6.20;80.87;98857.44;4914656;29;20025;-88
2022/09/02 04:18:20;;;;;;;;;;;;;;;6.20;80.69;98853.94;4899817;29;20299;-84
2022/09/02 04:20:49;;;;;;;;;;;;;;;6.23;80.57;98853.50;4899720;29;20306;-85
2022/09/02 04:23:17;;;;;;;;;;;;;;;6.28;80.50;98873.25;4915424;29;19964;-85
2022/09/02 04:25:45;;;;;;;;;;;;;;;6.29;79.79;98852.63;4896874;29;20291;-86
2022/09/02 04:28:14;;;;;;;;;;;;;;;6.29;79.78;98861.47;4911070;29;20038;-85
2022/09/02 04:30:41;;;;;;;;;;;;;;;6.31;79.73;98863.13;4896516;29;19931;-85
2022/09/02 04:33:10;;;;;;;;;;;;;;;6.33;79.69;98861.03;4911788;29;19971;-85
2022/09/02 04:35:39;;;;;;;;;;;;;;;6.34;79.61;98862.69;4908896;29;19938;-85
2022/09/02 04:38:07;;;;;;;;;;;;;;;6.30;79.54;98862.28;4922587;29;20104;-86
2022/09/02 04:40:40;;;;;;;;;;;;;;;6.36;79.42;98863.28;4909484;29;20336;-84
2022/09/02 04:43:09;;;;;;;;;;;;;;;6.43;79.41;98856.81;4888179;29;20033;-85
2022/09/02 04:45:40;;;;;;;;;;;;;;;6.49;79.44;98861.28;4922413;29;19942;-85
2022/09/02 04:48:08;;;;;;;;;;;;;;;6.53;78.76;98866.19;4918536;29;19968;-84
2022/09/02 04:50:46;;;;;;;;;;;;;;;6.58;78.12;98863.66;4925884;29;19998;-84
2022/09/02 04:53:14;;;;;;;;;;;;;;;6.63;77.97;98867.31;4566941;28;9999671;-83
2022/09/02 04:55:42;;;;;;;;;;;;;;;6.64;78.01;98868.16;4933477;29;20405;-87
2022/09/02 04:58:11;;;;;;;;;;;;;;;6.69;77.85;98871.00;4916233;29;20029;-85
2022/09/02 05:00:41;;;;;;;;;;;;;;;6.76;77.55;98870.91;4898796;29;19930;-84
2022/09/02 05:03:11;;;;;;;;;;;;;;;6.78;77.63;98875.00;4902292;29;19934;-84
2022/09/02 05:05:40;;;;;;;;;;;;;;;6.83;77.56;98866.28;4900341;29;19983;-86
2022/09/02 05:08:11;;;;;;;;;;;;;;;6.85;76.78;98873.06;4901796;29;19939;-85
2022/09/02 05:10:41;;;;;;;;;;;;;;;6.80;76.82;98874.81;4910451;29;20113;-85
2022/09/02 05:13:09;;;;;;;;;;;;;;;6.82;77.26;98878.91;4916046;29;19970;-87
2022/09/02 05:15:39;;;;;;;;;;;;;;;6.93;76.67;98883.50;4908705;29;19931;-88
2022/09/02 05:18:10;;;;;;;;;;;;;;;6.98;76.08;98877.47;4913672;29;19974;-85
2022/09/02 05:20:38;;;;;;;;;;;;;;;7.03;76.11;98882.19;4897869;29;19931;-85
2022/09/02 05:23:06;;;;;;;;;;;;;;;7.11;75.98;98889.91;4908624;29;19931;-87
2022/09/02 05:25:33;;;;;;;;;;;;;;;7.17;75.42;98894.41;4909978;29;19931;-82
2022/09/02 05:28:00;;;;;;;;;;;;;;;7.35;75.30;98907.78;4895286;29;19936;-84
2022/09/02 05:30:27;;;;;;;;;;;;;;;7.28;74.16;98900.88;4912992;29;20065;-84
2022/09/02 05:32:58;;;;;;;;;;;;;;;7.23;74.92;98893.50;4912483;29;19959;-84
2022/09/02 05:35:28;;;;;;;;;;;;;;;7.24;74.79;98907.72;4900770;29;19968;-83
2022/09/02 05:37:55;;;;;;;;;;;;;;;7.11;75.15;98901.47;4912731;29;19931;-86
2022/09/02 05:40:28;;;;;;;;;;;;;;;6.96;76.52;98922.47;4914586;29;20665;-87
2022/09/02 05:42:57;;;;;;;;;;;;;;;6.70;78.39;98905.63;4898875;29;19930;-85
2022/09/02 05:45:24;;;;;;;;;;;;;;;6.50;79.54;98908.50;4908208;29;19930;-84
2022/09/02 05:47:52;;;;;;;;;;;;;;;6.46;80.28;98909.19;4908575;29;19937;-86
2022/09/02 05:50:21;;;;;;;;;;;;;;;6.47;81.04;98919.66;4907566;29;20031;-84
2022/09/02 05:52:50;;;;;;;;;;;;;;;6.56;81.04;98932.78;4910109;29;19962;-85
2022/09/02 05:55:18;;;;;;;;;;;;;;;6.72;80.78;98924.19;4916852;29;19930;-85
2022/09/02 05:57:48;;;;;;;;;;;;;;;6.90;79.95;98921.53;4932971;29;20362;-85
2022/09/02 06:00:15;;;;;;;;;;;;;;;6.97;78.12;98926.81;4950630;29;20320;-85
2022/09/02 06:02:54;;;;;;;;;;;;;;;7.18;77.01;98917.50;4918833;29;19931;-86
2022/09/02 06:05:32;;;;;;;;;;;;;;;7.68;75.33;98936.09;4917613;29;20339;-84
2022/09/02 06:08:11;;;;;;;;;;;;;;;8.01;72.99;98924.06;4915998;29;19931;-87
2022/09/02 06:10:41;;;;;;;;;;;;;;;7.95;71.89;98931.16;4919733;29;19953;-89
2022/09/02 06:13:10;;;;;;;;;;;;;;;7.90;72.13;98925.66;4910365;29;19938;-86
2022/09/02 06:15:43;;;;;;;;;;;;;;;8.01;72.51;98932.94;4925564;29;19930;-90
2022/09/02 06:18:11;;;;;;;;;;;;;;;8.07;71.74;98933.88;4927655;29;19930;-87
2022/09/02 06:20:44;;;;;;;;;;;;;;;8.11;71.29;98936.94;4936184;29;19931;-83
2022/09/02 06:23:12;;;;;;;;;;;;;;;8.08;70.32;98938.22;4924319;29;19931;-86
2022/09/02 06:25:41;;;;;;;;;;;;;;;8.14;70.04;98945.34;4916370;29;19965;-84
2022/09/02 06:28:12;;;;;;;;;;;;;;;8.16;69.99;98945.94;4901818;29;19962;-87
2022/09/02 06:30:43;;;;;;;;;;;;;;;8.39;69.19;98955.09;4918371;29;19931;-86
2022/09/02 06:33:11;;;;;;;;;;;;;;;8.38;68.11;98965.06;4917621;29;19938;-86
2022/09/02 06:35:42;;;;;;;;;;;;;;;8.33;67.83;98958.69;4924674;29;19939;-89
2022/09/02 06:38:11;;;;;;;;;;;;;;;8.19;67.81;98966.97;4925424;29;19970;-87
2022/09/02 06:40:50;;;;;;;;;;;;;;;8.11;67.87;98959.25;4905648;29;19931;-90
2022/09/02 06:43:22;;;;;;;;;;;;;;;8.08;68.33;98975.84;4933459;29;19979;-88
2022/09/02 06:46:29;;;;;;;;;;;;;;;8.65;66.20;98960.06;4892442;29;19994;-89
2022/09/02 06:48:59;;;;;;;;;;;;;;;8.56;65.37;98969.56;4894553;29;19932;-90
2022/09/02 06:51:27;;;;;;;;;;;;;;;8.28;66.49;98983.63;4881344;29;19915;-87
2022/09/02 06:53:55;;;;;;;;;;;;;;;8.15;67.57;98975.72;4870590;29;19960;-89
2022/09/02 06:56:25;;;;;;;;;;;;;;;8.14;67.99;98982.97;4867276;29;19932;-90
2022/09/02 06:58:56;;;;;;;;;;;;;;;7.94;69.08;98977.06;4881634;29;19931;-89
2022/09/02 07:01:39;;;;;;;;;;;;;;;7.40;72.52;99005.66;4881111;29;20465;-88
2022/09/02 07:06:53;;;;;;;;;;;;;;;7.45;74.06;98992.38;4873984;29;19931;-89
2022/09/02 07:09:32;;;;;;;;;;;;;;;7.54;73.17;98986.44;4869736;29;19938;-89
2022/09/02 07:12:16;;;;;;;;;;;;;;;7.94;71.01;98977.06;4874477;29;19932;-88
2022/09/02 07:14:51;;;;;;;;;;;;;;;8.13;69.82;98986.72;4867872;29;20333;-90
2022/09/02 07:17:24;;;;;;;;;;;;;;;8.25;68.20;99001.03;4886808;29;20037;-87
2022/09/02 07:20:05;;;;;;;;;;;;;;;8.47;67.54;99005.91;4920765;29;19931;-89
2022/09/02 07:22:38;;;;;;;;;;;;;;;8.52;66.57;98994.44;4919895;29;19966;-90
2022/09/02 07:25:07;;;;;;;;;;;;;;;8.37;66.03;98995.66;4924250;29;19931;-89
2022/09/02 07:27:36;;;;;;;;;;;;;;;8.24;65.13;99004.75;4921096;29;19931;-88
2022/09/02 07:30:05;;;;;;;;;;;;;;;8.24;65.56;99012.00;4920528;29;19994;-88
2022/09/02 07:32:36;;;;;;;;;;;;;;;8.28;65.59;99010.50;4889020;29;19935;-87
2022/09/02 07:35:05;;;;;;;;;;;;;;;8.29;65.43;99009.44;4903059;29;19931;-86
2022/09/02 07:37:33;;;;;;;;;;;;;;;8.34;65.68;99016.81;4918608;29;19931;-88
2022/09/02 07:40:10;;;;;;;;;;;;;;;8.94;64.45;99019.44;4902628;29;19931;-87
2022/09/02 07:42:37;;;;;;;;;;;;;;;9.22;62.25;99013.31;4920380;29;19931;-89
2022/09/02 07:45:06;;;;;;;;;;;;;;;9.50;59.61;99020.66;4918510;29;19959;-89
2022/09/02 07:47:35;;;;;;;;;;;;;;;9.62;58.71;99014.41;4903074;29;20012;-88
2022/09/02 07:50:05;;;;;;;;;;;;;;;9.87;57.97;99017.63;4902744;29;19971;-89
2022/09/02 07:52:55;;;;;;;;;;;;;;;9.75;57.34;99006.91;4902803;29;19935;-90
2022/09/02 07:55:23;;;;;;;;;;;;;;;9.50;57.85;99026.06;4903074;29;19970;-88
2022/09/02 07:57:51;;;;;;;;;;;;;;;9.36;58.78;99015.78;4917168;29;20411;-88
2022/09/02 08:00:18;;;;;;;;;;;;;;;9.41;59.67;99030.16;4920418;29;19931;-89
2022/09/02 08:02:48;;;;;;;;;;;;;;;9.44;60.08;99040.44;4902506;29;19958;-89
2022/09/02 08:05:21;;;;;;;;;;;;;;;9.51;60.64;99038.47;4903856;29;20383;-88
2022/09/02 08:07:48;;;;;;;;;;;;;;;9.48;60.54;99041.63;4902147;29;19938;-89
2022/09/02 08:10:30;;;;;;;;;;;;;;;9.84;59.52;99041.56;4918040;29;19935;-89
2022/09/02 08:12:59;;;;;;;;;;;;;;;9.74;59.83;99032.19;4918925;29;19978;-89
2022/09/02 08:15:28;;;;;;;;;;;;;;;9.92;58.59;99039.28;4919625;29;19930;-89
2022/09/02 08:17:56;;;;;;;;;;;;;;;9.99;58.58;99031.91;4918372;29;19931;-88
2022/09/02 08:20:23;;;;;;;;;;;;;;;10.28;57.17;99034.66;4918883;29;19955;-89
2022/09/02 08:22:50;;;;;;;;;;;;;;;10.43;56.58;99060.25;4918438;29;19931;-88
2022/09/02 08:25:37;;;;;;;;;;;;;;;10.35;55.36;99046.06;4909171;29;19994;-90
2022/09/02 08:28:04;;;;;;;;;;;;;;;10.31;54.22;99050.34;4921710;29;19939;-86
2022/09/02 08:30:32;;;;;;;;;;;;;;;10.31;53.99;99068.41;4929532;29;20005;-87
2022/09/02 08:32:59;;;;;;;;;;;;;;;10.15;54.80;99042.97;4932551;29;19998;-88
2022/09/02 08:35:27;;;;;;;;;;;;;;;9.95;55.71;99048.78;4918542;29;19963;-88
2022/09/02 08:37:58;;;;;;;;;;;;;;;9.64;58.19;99058.13;4901735;29;20453;-88
2022/09/02 08:40:32;;;;;;;;;;;;;;;9.51;59.60;99064.59;4920487;29;20001;-87
2022/09/02 08:42:59;;;;;;;;;;;;;;;9.42;60.61;99066.00;4918753;29;19939;-88
2022/09/02 08:45:27;;;;;;;;;;;;;;;9.33;61.71;99057.47;4919230;29;19955;-88
2022/09/02 08:48:01;;;;;;;;;;;;;;;9.37;62.11;99063.19;4918088;29;19935;-89
2022/09/02 08:50:28;;;;;;;;;;;;;;;9.47;62.74;99080.41;4918459;29;20448;-89
2022/09/02 08:53:15;;;;;;;;;;;;;;;9.70;62.53;99078.75;4918840;29;19931;-88
2022/09/02 08:55:48;;;;;;;;;;;;;;;10.43;60.14;99079.13;4919006;29;19931;-88
2022/09/02 08:58:18;;;;;;;;;;;;;;;10.18;60.19;99085.66;4910515;29;19931;-88
2022/09/02 09:00:55;;;;;;;;;;;;;;;9.96;61.35;99082.78;4925453;29;20183;-88
2022/09/02 09:03:22;;;;;;;;;;;;;;;9.78;60.92;99091.84;4917862;29;19942;-88
2022/09/02 09:05:56;;;;;;;;;;;;;;;9.74;61.67;99086.09;4918016;29;20356;-89
2022/09/02 09:08:30;;;;;;;;;;;;;;;9.79;62.78;99093.47;4924024;29;20372;-90
2022/09/02 09:11:03;;;;;;;;;;;;;;;9.98;62.96;99097.66;4927516;29;19954;-89
2022/09/02 09:13:36;;;;;;;;;;;;;;;10.71;61.33;99102.56;4921825;29;20022;-88
2022/09/02 09:16:10;;;;;;;;;;;;;;;10.67;60.37;99099.56;4918922;29;19931;-88
2022/09/02 09:18:47;;;;;;;;;;;;;;;10.56;57.78;99098.56;4902269;29;19931;-89
2022/09/02 09:21:20;;;;;;;;;;;;;;;10.48;58.35;99111.59;4884716;29;19975;-89
2022/09/02 09:23:54;;;;;;;;;;;;;;;10.63;56.84;99103.78;4880022;29;19932;-88
2022/09/02 09:26:26;;;;;;;;;;;;;;;11.18;55.87;99113.91;4864035;29;19932;-88
2022/09/02 09:28:54;;;;;;;;;;;;;;;11.32;52.87;99143.28;4864944;29;20087;-88
2022/09/02 09:31:29;;;;;;;;;;;;;;;11.66;51.76;99111.66;4869482;29;19974;-88
2022/09/02 09:33:58;;;;;;;;;;;;;;;11.31;51.83;99133.56;4867718;29;20026;-89
2022/09/02 09:36:42;;;;;;;;;;;;;;;11.17;52.79;99114.16;4878429;29;19931;-90
2022/09/02 09:39:18;;;;;;;;;;;;;;;11.87;51.81;99132.50;4863305;29;19935;-90
2022/09/02 09:42:10;;;;;;;;;;;;;;;12.02;50.34;99155.44;4880180;29;19936;-90
2022/09/02 09:44:38;;;;;;;;;;;;;;;13.18;48.27;99124.47;4892999;29;19932;-89
2022/09/02 09:47:07;;;;;;;;;;;;;;;13.43;47.95;99130.13;4890806;29;19932;-87
2022/09/02 09:49:34;;;;;;;;;;;;;;;13.15;47.31;99128.50;4863889;29;19931;-89
2022/09/02 09:52:02;;;;;;;;;;;;;;;13.36;46.96;99132.22;4887233;29;19956;-89
2022/09/02 09:54:29;;;;;;;;;;;;;;;13.56;45.89;99141.59;4903219;29;20063;-89
2022/09/02 09:56:56;;;;;;;;;;;;;;;12.83;47.18;99152.88;4888927;29;20604;-89
2022/09/02 09:59:33;;;;;;;;;;;;;;;12.29;48.38;99150.91;4902024;29;19931;-88
2022/09/02 10:02:02;;;;;;;;;;;;;;;12.43;48.27;99131.59;4899705;29;20021;-90
2022/09/02 10:04:31;;;;;;;;;;;;;;;12.07;48.38;99150.91;4899766;29;19932;-87
2022/09/02 10:07:09;;;;;;;;;;;;;;;11.90;49.15;99140.16;4901192;29;19935;-87
2022/09/02 10:09:36;;;;;;;;;;;;;;;12.01;49.02;99140.28;4915366;29;19931;-86
2022/09/02 10:12:05;;;;;;;;;;;;;;;12.10;47.96;99146.88;4930299;29;20398;-87
2022/09/02 10:14:38;;;;;;;;;;;;;;;12.55;47.25;99145.81;4915299;29;19930;-87
2022/09/02 10:17:24;;;;;;;;;;;;;;;12.60;46.78;99118.78;4920888;29;19938;-88
2022/09/02 10:20:04;;;;;;;;;;;;;;;13.04;45.82;99136.81;4938288;29;19962;-89
2022/09/02 10:22:50;;;;;;;;;;;;;;;12.98;46.80;99142.19;4912328;29;19966;-87
2022/09/02 10:25:35;;;;;;;;;;;;;;;12.94;45.87;99157.31;4904251;29;19931;-86
2022/09/02 10:28:06;;;;;;;;;;;;;;;12.21;47.31;99153.25;4910478;29;19935;-86
2022/09/02 10:30:41;;;;;;;;;;;;;;;13.83;44.89;99166.72;4896224;29;20313;-88
2022/09/02 10:33:20;;;;;;;;;;;;;;;14.53;42.90;99144.81;4897979;29;19942;-85
2022/09/02 10:35:49;;;;;;;;;;;;;;;13.73;44.39;99150.38;4904013;29;19937;-86
2022/09/02 10:38:19;;;;;;;;;;;;;;;14.80;42.99;99150.06;4909230;29;20094;-87
2022/09/02 10:40:49;;;;;;;;;;;;;;;14.13;44.10;99176.13;4924860;29;20026;-85
2022/09/02 10:43:36;;;;;;;;;;;;;;;13.15;46.12;99174.59;4929836;29;19937;-86
2022/09/02 10:46:04;;;;;;;;;;;;;;;12.55;47.86;99172.88;4916002;29;20466;-85
2022/09/02 10:48:31;;;;;;;;;;;;;;;12.18;48.88;99175.38;4892707;29;20321;-85
2022/09/02 10:51:05;;;;;;;;;;;;;;;11.59;50.94;99195.63;4894251;29;20409;-87
2022/09/02 10:53:32;;;;;;;;;;;;;;;10.90;54.79;99217.41;4913474;29;19997;-87
2022/09/02 10:56:20;;;;;;;;;;;;;;;10.07;60.17;99230.22;4925400;29;19974;-87
2022/09/02 10:58:47;;;;;;;;;;;;;;;9.61;63.91;99220.28;4928069;29;20361;-86
2022/09/02 11:01:18;;;;;;;;;;;;;;;9.54;64.94;99234.69;4939046;29;19931;-86
2022/09/02 11:03:54;;;;;;;;;;;;;;;9.74;64.84;99230.81;4909270;29;19974;-87
2022/09/02 11:06:42;;;;;;;;;;;;;;;10.17;64.66;99229.66;4928940;29;20564;-87
2022/09/02 11:09:31;;;;;;;;;;;;;;;10.41;63.51;99233.97;4931938;29;19923;-86
2022/09/02 11:12:10;;;;;;;;;;;;;;;10.27;64.48;99235.25;4916986;29;19948;-89
2022/09/02 11:14:50;;;;;;;;;;;;;;;10.96;63.78;99237.22;4932529;29;19931;-89
2022/09/02 11:17:22;;;;;;;;;;;;;;;13.65;56.80;99240.38;4926403;29;20394;-89
2022/09/02 11:19:50;;;;;;;;;;;;;;;14.82;51.90;99234.81;4920967;29;19935;-89
2022/09/02 11:22:52;;;;;;;;;;;;;;;15.57;48.61;99202.59;4910123;29;20026;-93
2022/09/02 11:25:21;;;;;;;;;;;;;;;15.64;48.64;99226.78;4929216;29;20348;-89
2022/09/02 11:28:00;;;;;;;;;;;;;;;16.51;47.31;99223.97;4937168;29;19966;-91
2022/09/02 11:30:42;;;;;;;;;;;;;;;13.82;50.79;99224.78;4936958;29;19930;-90
2022/09/02 11:33:09;;;;;;;;;;;;;;;12.23;54.41;99213.34;4932683;29;19931;-92
2022/09/02 11:35:50;;;;;;;;;;;;;;;11.32;58.00;99262.16;4921176;29;19981;-94
2022/09/02 11:38:36;;;;;;;;;;;;;;;10.26;64.85;99265.19;4931192;29;19967;-91
2022/09/02 11:41:16;;;;;;;;;;;;;;;9.31;68.28;99275.03;4948619;29;19934;-91
2022/09/02 11:44:14;;;;;;;;;;;;;;;9.03;69.76;99268.38;4944809;29;19931;-89
2022/09/02 11:46:55;;;;;;;;;;;;;;;9.10;69.17;99260.22;4929830;29;19935;-90
2022/09/02 11:49:42;;;;;;;;;;;;;;;9.23;68.11;99269.97;4936889;29;20303;-90
2022/09/02 11:52:36;;;;;;;;;;;;;;;10.34;65.00;99259.44;4931341;29;19960;-91
2022/09/02 11:55:25;;;;;;;;;;;;;;;13.21;56.99;99267.56;4945787;29;19937;-91
2022/09/02 11:58:06;;;;;;;;;;;;;;;15.05;52.22;99263.44;4894289;29;20030;-91
2022/09/02 12:00:35;;;;;;;;;;;;;;;15.49;49.93;99273.03;4855285;29;19936;-92
2022/09/02 12:03:09;;;;;;;;;;;;;;;15.34;48.53;99262.94;4868164;29;19998;-90
2022/09/02 12:06:09;;;;;;;;;;;;;;;15.54;48.69;99265.69;4849632;29;20435;-91
2022/09/02 12:08:37;;;;;;;;;;;;;;;16.19;47.58;99259.72;4869679;29;20578;-92
2022/09/02 12:11:05;;;;;;;;;;;;;;;16.62;47.38;99257.41;4862315;29;20547;-92
2022/09/02 12:13:42;;;;;;;;;;;;;;;17.13;45.92;99257.22;4879268;29;20430;-92
2022/09/02 12:16:15;;;;;;;;;;;;;;;17.58;44.70;99271.66;4874806;29;20022;-90
2022/09/02 12:18:43;;;;;;;;;;;;;;;17.63;44.28;99265.34;4878442;29;19988;-90
2022/09/02 12:21:13;;;;;;;;;;;;;;;17.80;43.82;99264.94;4881245;29;19964;-90
2022/09/02 12:23:55;;;;;;;;;;;;;;;17.27;45.25;99273.78;4873656;29;20360;-90
2022/09/02 12:26:25;;;;;;;;;;;;;;;17.29;44.91;99271.56;4880645;29;20030;-92
2022/09/02 12:28:52;;;;;;;;;;;;;;;17.58;44.50;99268.13;4867324;29;20029;-91
2022/09/02 12:31:41;;;;;;;;;;;;;;;14.80;48.89;99274.22;4890775;29;19931;-92
2022/09/02 12:34:23;;;;;;;;;;;;;;;13.65;53.68;99278.34;4892658;29;20061;-89
2022/09/02 12:36:51;;;;;;;;;;;;;;;14.98;51.34;99268.28;4923790;29;19935;-88
2022/09/02 12:39:21;;;;;;;;;;;;;;;16.95;47.36;99266.03;4933331;29;19978;-86
2022/09/02 12:42:00;;;;;;;;;;;;;;;18.33;43.65;99263.09;4926930;29;19938;-88
2022/09/02 12:44:45;;;;;;;;;;;;;;;18.89;42.26;99261.66;4913697;29;19937;-87
2022/09/02 12:47:12;;;;;;;;;;;;;;;19.12;40.99;99262.72;4924768;29;19931;-87
2022/09/02 12:49:47;;;;;;;;;;;;;;;19.40;40.12;99262.88;4926392;29;20420;-88
2022/09/02 12:52:33;;;;;;;;;;;;;;;16.53;44.45;99259.06;4912159;29;19957;-88
2022/09/02 12:55:13;;;;;;;;;;;;;;;14.50;46.97;99268.34;4926294;29;19935;-86
2022/09/02 12:57:41;;;;;;;;;;;;;;;13.28;49.27;99267.41;4924079;29;19939;-88
2022/09/02 13:00:34;;;;;;;;;;;;;;;13.00;50.55;99270.06;4927237;29;20421;-87
2022/09/02 13:03:22;;;;;;;;;;;;;;;13.03;50.04;99274.16;4911582;29;19961;-86
2022/09/02 13:05:53;;;;;;;;;;;;;;;13.13;49.75;99278.88;4923493;29;20349;-88
2022/09/02 13:08:20;;;;;;;;;;;;;;;13.04;50.19;99272.25;4939370;29;19938;-89
2022/09/02 13:11:06;;;;;;;;;;;;;;;14.96;47.31;99286.75;4941019;29;19931;-89
2022/09/02 13:13:33;;;;;;;;;;;;;;;17.10;41.33;99274.94;4932601;29;19994;-88
2022/09/02 13:16:23;;;;;;;;;;;;;;;18.21;37.94;99281.81;4934891;29;19931;-89
2022/09/02 13:18:59;;;;;;;;;;;;;;;18.63;38.22;99277.50;4872777;29;19932;-86